This is the latest recevied weather packets stored in our database for station/object R2AJV-13. If no packets are shown the sender has not sent any weather packets the latest 10 day(s).
| Time | Temp. | Humidity | Pressure | Rain* | Wind** | Luminosity | Snow |
|---|---|---|---|---|---|---|---|
| 1787927438 | 19.44° C | 63% | 1012.5 hPa | 0 mm | - | - | - |
| 1787926528 | 20° C | 59% | 1012.7 hPa | 0 mm | - | - | - |
| 1787925617 | 19.44° C | 61% | 1012.8 hPa | 0 mm | - | - | - |
| 1787924766 | 20° C | 60% | 1012.7 hPa | 0 mm | - | - | - |
| 1787923861 | 20° C | 60% | 1012.6 hPa | 0 mm | - | - | - |
| 1787922950 | 20° C | 59% | 1012.6 hPa | 0 mm | - | - | - |
| 1787922068 | 21.11° C | 56% | 1012.6 hPa | 0 mm | - | - | - |
| 1787921163 | 21.11° C | 57% | 1012.8 hPa | 0 mm | - | - | - |
| 1787920252 | 21.11° C | 57% | 1012.7 hPa | 0 mm | - | - | - |
| 1787919341 | 21.11° C | 54% | 1012.8 hPa | 0 mm | - | - | - |
| 1787918431 | 21.11° C | 57% | 1012.7 hPa | 0 mm | - | - | - |
| 1787917526 | 20.56° C | 58% | 1012.8 hPa | 0 mm | - | - | - |
| 1787916675 | 20° C | 58% | 1012.8 hPa | 0 mm | - | - | - |
| 1787915764 | 18.89° C | 64% | 1012.9 hPa | 0 mm | - | - | - |
| 1787914854 | 20.56° C | 57% | 1013 hPa | 0 mm | - | - | - |
| 1787913943 | 21.11° C | 58% | 1013 hPa | 0 mm | - | - | - |
| 1787913039 | 20.56° C | 57% | 1013.1 hPa | 0 mm | - | - | - |
| 1787912128 | 20° C | 58% | 1013.1 hPa | 0 mm | - | - | - |
| 1787911217 | 20° C | 60% | 1013.1 hPa | 0 mm | - | - | - |
| 1787910367 | 19.44° C | 62% | 1013 hPa | 0 mm | - | - | - |
| 1787909462 | 19.44° C | 62% | 1013.1 hPa | 0 mm | - | - | - |
| 1787908552 | 19.44° C | 62% | 1013.1 hPa | 0 mm | - | - | - |
| 1787907675 | 18.89° C | 61% | 1013.1 hPa | 0 mm | - | - | - |
| 1787906765 | 18.89° C | 62% | 1013.1 hPa | 0 mm | - | - | - |
| 1787905854 | 18.89° C | 63% | 1013.2 hPa | 0 mm | - | - | - |
* Rain latest hour (hover to see other rain measurements)
** Current wind speed in m/s (hover to see current wind gust speed)